sensor_id;sensor_type;location;lat;lon;timestamp;P1;durP1;ratioP1;P2;durP2;ratioP2
52072;SDS011;38074;51.232;6.826;2022-11-04T00:01:03;3.90;;;0.50;;
52072;SDS011;38074;51.232;6.826;2022-11-04T00:08:19;1.08;;;0.30;;
52072;SDS011;38074;51.232;6.826;2022-11-04T00:15:38;0.98;;;0.55;;
52072;SDS011;38074;51.232;6.826;2022-11-04T00:23:12;1.00;;;0.40;;
52072;SDS011;38074;51.232;6.826;2022-11-04T00:30:46;1.48;;;0.45;;
52072;SDS011;38074;51.232;6.826;2022-11-04T00:38:02;1.47;;;0.50;;
52072;SDS011;38074;51.232;6.826;2022-11-04T00:45:17;0.50;;;0.30;;
52072;SDS011;38074;51.232;6.826;2022-11-04T00:52:33;0.73;;;0.40;;
52072;SDS011;38074;51.232;6.826;2022-11-04T00:59:48;0.73;;;0.20;;
52072;SDS011;38074;51.232;6.826;2022-11-04T01:07:04;1.10;;;0.20;;
52072;SDS011;38074;51.232;6.826;2022-11-04T01:14:20;0.50;;;0.30;;
52072;SDS011;38074;51.232;6.826;2022-11-04T01:21:36;0.82;;;0.30;;
52072;SDS011;38074;51.232;6.826;2022-11-04T01:28:51;0.70;;;0.30;;
52072;SDS011;38074;51.232;6.826;2022-11-04T01:36:09;1.10;;;0.20;;
52072;SDS011;38074;51.232;6.826;2022-11-04T01:51:18;0.70;;;0.30;;
52072;SDS011;38074;51.232;6.826;2022-11-04T01:58:34;0.37;;;0.20;;
52072;SDS011;38074;51.232;6.826;2022-11-04T02:05:50;1.33;;;0.30;;
52072;SDS011;38074;51.232;6.826;2022-11-04T02:13:05;0.65;;;0.40;;
52072;SDS011;38074;51.232;6.826;2022-11-04T02:27:59;0.85;;;0.20;;
52072;SDS011;38074;51.232;6.826;2022-11-04T02:43:01;1.42;;;0.20;;
52072;SDS011;38074;51.232;6.826;2022-11-04T02:50:53;0.70;;;0.20;;
52072;SDS011;38074;51.232;6.826;2022-11-04T02:58:18;1.15;;;0.40;;
52072;SDS011;38074;51.232;6.826;2022-11-04T03:05:40;1.05;;;0.22;;
52072;SDS011;38074;51.232;6.826;2022-11-04T03:13:05;0.75;;;0.40;;
52072;SDS011;38074;51.232;6.826;2022-11-04T03:20:23;1.90;;;0.20;;
52072;SDS011;38074;51.232;6.826;2022-11-04T03:27:47;1.85;;;0.30;;
52072;SDS011;38074;51.232;6.826;2022-11-04T03:35:19;1.20;;;0.30;;
52072;SDS011;38074;51.232;6.826;2022-11-04T03:42:58;0.82;;;0.20;;
52072;SDS011;38074;51.232;6.826;2022-11-04T03:50:33;0.22;;;0.17;;
52072;SDS011;38074;51.232;6.826;2022-11-04T04:05:22;1.02;;;0.30;;
52072;SDS011;38074;51.232;6.826;2022-11-04T04:12:44;0.30;;;0.20;;
52072;SDS011;38074;51.232;6.826;2022-11-04T04:20:05;1.42;;;0.20;;
52072;SDS011;38074;51.232;6.826;2022-11-04T04:27:24;0.20;;;0.10;;
52072;SDS011;38074;51.232;6.826;2022-11-04T04:34:46;1.33;;;0.17;;
52072;SDS011;38074;51.232;6.826;2022-11-04T04:42:01;1.37;;;0.20;;
52072;SDS011;38074;51.232;6.826;2022-11-04T04:49:47;0.32;;;0.20;;
52072;SDS011;38074;51.232;6.826;2022-11-04T04:57:07;0.38;;;0.13;;
52072;SDS011;38074;51.232;6.826;2022-11-04T05:04:22;0.30;;;0.10;;
52072;SDS011;38074;51.232;6.826;2022-11-04T05:11:38;1.65;;;0.20;;
52072;SDS011;38074;51.232;6.826;2022-11-04T05:18:53;1.77;;;0.20;;
52072;SDS011;38074;51.232;6.826;2022-11-04T05:26:09;0.35;;;0.20;;
52072;SDS011;38074;51.232;6.826;2022-11-04T05:33:25;1.87;;;0.30;;
52072;SDS011;38074;51.232;6.826;2022-11-04T05:40:40;0.40;;;0.20;;
52072;SDS011;38074;51.232;6.826;2022-11-04T05:47:56;0.87;;;0.33;;
52072;SDS011;38074;51.232;6.826;2022-11-04T06:02:38;0.50;;;0.10;;
52072;SDS011;38074;51.232;6.826;2022-11-04T06:09:54;3.10;;;0.30;;
52072;SDS011;38074;51.232;6.826;2022-11-04T06:17:16;1.50;;;0.20;;
52072;SDS011;38074;51.232;6.826;2022-11-04T06:24:33;3.75;;;0.60;;
52072;SDS011;38074;51.232;6.826;2022-11-04T06:31:49;5.53;;;1.60;;
52072;SDS011;38074;51.232;6.826;2022-11-04T06:39:05;6.55;;;1.40;;
52072;SDS011;38074;51.232;6.826;2022-11-04T06:46:42;11.50;;;2.03;;
52072;SDS011;38074;51.232;6.826;2022-11-04T06:53:57;7.95;;;1.40;;
52072;SDS011;38074;51.232;6.826;2022-11-04T07:01:12;5.93;;;1.60;;
52072;SDS011;38074;51.232;6.826;2022-11-04T07:08:28;8.97;;;1.70;;
52072;SDS011;38074;51.232;6.826;2022-11-04T07:15:43;4.10;;;1.57;;
52072;SDS011;38074;51.232;6.826;2022-11-04T07:22:59;7.03;;;1.70;;
52072;SDS011;38074;51.232;6.826;2022-11-04T07:30:14;8.30;;;1.80;;
52072;SDS011;38074;51.232;6.826;2022-11-04T07:37:30;9.93;;;1.92;;
52072;SDS011;38074;51.232;6.826;2022-11-04T07:44:46;10.40;;;1.30;;
52072;SDS011;38074;51.232;6.826;2022-11-04T07:52:02;8.18;;;1.42;;
52072;SDS011;38074;51.232;6.826;2022-11-04T07:59:17;6.55;;;1.35;;
52072;SDS011;38074;51.232;6.826;2022-11-04T08:06:33;6.03;;;0.93;;
52072;SDS011;38074;51.232;6.826;2022-11-04T08:13:48;6.57;;;1.13;;
52072;SDS011;38074;51.232;6.826;2022-11-04T08:21:04;7.47;;;1.25;;
52072;SDS011;38074;51.232;6.826;2022-11-04T08:28:21;5.60;;;1.27;;
52072;SDS011;38074;51.232;6.826;2022-11-04T08:35:38;4.07;;;0.90;;
52072;SDS011;38074;51.232;6.826;2022-11-04T08:42:55;9.60;;;1.52;;
52072;SDS011;38074;51.232;6.826;2022-11-04T08:50:11;6.13;;;0.90;;
52072;SDS011;38074;51.232;6.826;2022-11-04T08:57:26;3.60;;;0.80;;
52072;SDS011;38074;51.232;6.826;2022-11-04T09:04:42;2.50;;;0.87;;
52072;SDS011;38074;51.232;6.826;2022-11-04T09:11:57;2.23;;;0.70;;
52072;SDS011;38074;51.232;6.826;2022-11-04T09:19:13;3.00;;;0.93;;
52072;SDS011;38074;51.232;6.826;2022-11-04T09:26:29;2.75;;;0.80;;
52072;SDS011;38074;51.232;6.826;2022-11-04T09:33:45;1.65;;;0.50;;
52072;SDS011;38074;51.232;6.826;2022-11-04T09:41:00;1.73;;;0.70;;
52072;SDS011;38074;51.232;6.826;2022-11-04T09:48:33;1.77;;;0.50;;
52072;SDS011;38074;51.232;6.826;2022-11-04T09:55:56;3.25;;;0.60;;
52072;SDS011;38074;51.232;6.826;2022-11-04T10:18:46;1.95;;;0.40;;
52072;SDS011;38074;51.232;6.826;2022-11-04T10:33:32;2.42;;;0.57;;
52072;SDS011;38074;51.232;6.826;2022-11-04T10:40:52;1.63;;;0.60;;
52072;SDS011;38074;51.232;6.826;2022-11-04T10:48:12;2.07;;;0.60;;
52072;SDS011;38074;51.232;6.826;2022-11-04T10:55:46;1.75;;;0.50;;
52072;SDS011;38074;51.232;6.826;2022-11-04T11:10:39;1.88;;;0.73;;
52072;SDS011;38074;51.232;6.826;2022-11-04T11:18:15;2.47;;;0.40;;
52072;SDS011;38074;51.232;6.826;2022-11-04T11:25:32;1.63;;;0.40;;
52072;SDS011;38074;51.232;6.826;2022-11-04T11:32:52;0.90;;;0.40;;
52072;SDS011;38074;51.232;6.826;2022-11-04T11:40:27;1.33;;;0.38;;
52072;SDS011;38074;51.232;6.826;2022-11-04T11:47:51;0.80;;;0.40;;
52072;SDS011;38074;51.232;6.826;2022-11-04T12:02:33;0.50;;;0.22;;
52072;SDS011;38074;51.232;6.826;2022-11-04T12:10:02;1.25;;;0.20;;
52072;SDS011;38074;51.232;6.826;2022-11-04T12:17:49;0.65;;;0.32;;
52072;SDS011;38074;51.232;6.826;2022-11-04T12:33:13;0.80;;;0.30;;
52072;SDS011;38074;51.232;6.826;2022-11-04T12:40:41;0.50;;;0.20;;
52072;SDS011;38074;51.232;6.826;2022-11-04T12:48:06;1.48;;;0.30;;
52072;SDS011;38074;51.232;6.826;2022-11-04T12:55:33;0.93;;;0.40;;
52072;SDS011;38074;51.232;6.826;2022-11-04T13:03:20;0.85;;;0.30;;
52072;SDS011;38074;51.232;6.826;2022-11-04T13:18:37;0.90;;;0.30;;
52072;SDS011;38074;51.232;6.826;2022-11-04T13:25:55;0.95;;;0.30;;
52072;SDS011;38074;51.232;6.826;2022-11-04T13:41:02;0.60;;;0.30;;
52072;SDS011;38074;51.232;6.826;2022-11-04T13:48:51;1.25;;;0.20;;
52072;SDS011;38074;51.232;6.826;2022-11-04T14:11:28;0.40;;;0.20;;
52072;SDS011;38074;51.232;6.826;2022-11-04T14:18:45;1.03;;;0.20;;
52072;SDS011;38074;51.232;6.826;2022-11-04T14:26:06;1.30;;;0.20;;
52072;SDS011;38074;51.232;6.826;2022-11-04T14:33:29;1.20;;;0.47;;
52072;SDS011;38074;51.232;6.826;2022-11-04T14:40:47;0.75;;;0.30;;
52072;SDS011;38074;51.232;6.826;2022-11-04T14:48:10;1.45;;;0.30;;
52072;SDS011;38074;51.232;6.826;2022-11-04T14:55:30;0.50;;;0.20;;
52072;SDS011;38074;51.232;6.826;2022-11-04T15:02:46;0.75;;;0.22;;
52072;SDS011;38074;51.232;6.826;2022-11-04T15:17:38;0.45;;;0.20;;
52072;SDS011;38074;51.232;6.826;2022-11-04T15:24:54;0.93;;;0.20;;
52072;SDS011;38074;51.232;6.826;2022-11-04T15:32:14;0.70;;;0.20;;
52072;SDS011;38074;51.232;6.826;2022-11-04T15:39:32;0.57;;;0.20;;
52072;SDS011;38074;51.232;6.826;2022-11-04T15:46:52;0.57;;;0.22;;
52072;SDS011;38074;51.232;6.826;2022-11-04T15:54:19;0.38;;;0.17;;
52072;SDS011;38074;51.232;6.826;2022-11-04T16:09:17;0.50;;;0.20;;
52072;SDS011;38074;51.232;6.826;2022-11-04T16:16:35;0.47;;;0.20;;
52072;SDS011;38074;51.232;6.826;2022-11-04T16:23:52;0.75;;;0.25;;
52072;SDS011;38074;51.232;6.826;2022-11-04T16:38:35;1.20;;;0.40;;
52072;SDS011;38074;51.232;6.826;2022-11-04T16:45:50;1.17;;;0.20;;
52072;SDS011;38074;51.232;6.826;2022-11-04T16:53:06;3.93;;;0.40;;
52072;SDS011;38074;51.232;6.826;2022-11-04T17:00:23;2.67;;;0.45;;
52072;SDS011;38074;51.232;6.826;2022-11-04T17:07:40;1.48;;;0.40;;
52072;SDS011;38074;51.232;6.826;2022-11-04T17:14:56;1.85;;;0.40;;
52072;SDS011;38074;51.232;6.826;2022-11-04T17:22:11;1.00;;;0.30;;
52072;SDS011;38074;51.232;6.826;2022-11-04T17:29:27;5.60;;;0.80;;
52072;SDS011;38074;51.232;6.826;2022-11-04T17:36:43;3.63;;;0.95;;
52072;SDS011;38074;51.232;6.826;2022-11-04T17:43:59;3.17;;;0.77;;
52072;SDS011;38074;51.232;6.826;2022-11-04T17:51:14;5.10;;;0.47;;
52072;SDS011;38074;51.232;6.826;2022-11-04T17:58:30;2.30;;;0.60;;
52072;SDS011;38074;51.232;6.826;2022-11-04T18:05:46;2.13;;;0.80;;
52072;SDS011;38074;51.232;6.826;2022-11-04T18:13:01;2.37;;;0.50;;
52072;SDS011;38074;51.232;6.826;2022-11-04T18:20:17;1.50;;;0.40;;
52072;SDS011;38074;51.232;6.826;2022-11-04T18:27:32;1.30;;;0.43;;
52072;SDS011;38074;51.232;6.826;2022-11-04T18:34:48;1.05;;;0.35;;
52072;SDS011;38074;51.232;6.826;2022-11-04T18:42:05;3.93;;;0.73;;
52072;SDS011;38074;51.232;6.826;2022-11-04T18:49:20;2.67;;;0.40;;
52072;SDS011;38074;51.232;6.826;2022-11-04T18:56:36;3.30;;;0.83;;
52072;SDS011;38074;51.232;6.826;2022-11-04T19:03:51;3.30;;;0.93;;
52072;SDS011;38074;51.232;6.826;2022-11-04T19:11:17;3.83;;;1.17;;
52072;SDS011;38074;51.232;6.826;2022-11-04T19:18:37;3.33;;;1.30;;
52072;SDS011;38074;51.232;6.826;2022-11-04T19:25:54;3.17;;;1.17;;
52072;SDS011;38074;51.232;6.826;2022-11-04T19:33:09;2.57;;;1.10;;
52072;SDS011;38074;51.232;6.826;2022-11-04T19:40:25;2.60;;;1.30;;
52072;SDS011;38074;51.232;6.826;2022-11-04T19:47:40;4.27;;;1.40;;
52072;SDS011;38074;51.232;6.826;2022-11-04T19:54:56;1.90;;;0.90;;
52072;SDS011;38074;51.232;6.826;2022-11-04T20:02:12;3.03;;;1.03;;
52072;SDS011;38074;51.232;6.826;2022-11-04T20:09:28;2.83;;;1.05;;
52072;SDS011;38074;51.232;6.826;2022-11-04T20:16:44;3.10;;;1.90;;
52072;SDS011;38074;51.232;6.826;2022-11-04T20:24:00;4.70;;;2.57;;
52072;SDS011;38074;51.232;6.826;2022-11-04T20:31:21;6.18;;;2.20;;
52072;SDS011;38074;51.232;6.826;2022-11-04T20:38:38;4.35;;;2.10;;
52072;SDS011;38074;51.232;6.826;2022-11-04T20:45:53;3.38;;;1.90;;
52072;SDS011;38074;51.232;6.826;2022-11-04T20:53:10;7.13;;;2.20;;
52072;SDS011;38074;51.232;6.826;2022-11-04T21:00:26;5.17;;;1.63;;
52072;SDS011;38074;51.232;6.826;2022-11-04T21:07:41;6.77;;;2.03;;
52072;SDS011;38074;51.232;6.826;2022-11-04T21:14:57;4.37;;;1.17;;
52072;SDS011;38074;51.232;6.826;2022-11-04T21:22:12;4.43;;;1.67;;
52072;SDS011;38074;51.232;6.826;2022-11-04T21:29:28;2.17;;;1.40;;
52072;SDS011;38074;51.232;6.826;2022-11-04T21:36:43;4.77;;;1.40;;
52072;SDS011;38074;51.232;6.826;2022-11-04T21:44:00;2.97;;;1.10;;
52072;SDS011;38074;51.232;6.826;2022-11-04T21:58:34;2.67;;;1.23;;
52072;SDS011;38074;51.232;6.826;2022-11-04T22:05:59;4.83;;;1.27;;
52072;SDS011;38074;51.232;6.826;2022-11-04T22:13:16;3.40;;;1.20;;
52072;SDS011;38074;51.232;6.826;2022-11-04T22:20:35;3.20;;;1.03;;
52072;SDS011;38074;51.232;6.826;2022-11-04T22:27:51;2.75;;;1.00;;
52072;SDS011;38074;51.232;6.826;2022-11-04T22:35:07;3.75;;;1.17;;
52072;SDS011;38074;51.232;6.826;2022-11-04T22:42:22;2.72;;;1.27;;
52072;SDS011;38074;51.232;6.826;2022-11-04T22:49:38;2.20;;;0.83;;
52072;SDS011;38074;51.232;6.826;2022-11-04T22:56:53;2.37;;;0.87;;
52072;SDS011;38074;51.232;6.826;2022-11-04T23:04:09;2.63;;;0.80;;
52072;SDS011;38074;51.232;6.826;2022-11-04T23:11:27;3.97;;;0.95;;
52072;SDS011;38074;51.232;6.826;2022-11-04T23:19:02;2.47;;;0.90;;
52072;SDS011;38074;51.232;6.826;2022-11-04T23:26:18;2.10;;;1.10;;
52072;SDS011;38074;51.232;6.826;2022-11-04T23:33:33;1.97;;;0.70;;
52072;SDS011;38074;51.232;6.826;2022-11-04T23:41:07;3.25;;;0.80;;
52072;SDS011;38074;51.232;6.826;2022-11-04T23:48:41;3.45;;;0.90;;
52072;SDS011;38074;51.232;6.826;2022-11-04T23:56:15;1.77;;;0.70;;
